Time;durP1;ratioP1;P1;durP2;ratioP2;P2;SDS_P1;SDS_P2;PMS_P1;PMS_P2;Temp;Humidity;BMP_temperature;BMP_pressure;BME280_temperature;BME280_humidity;BME280_pressure;Samples;Min_cycle;Max_cycle;Signal;HPM_P1;HPM_P2
2023/07/10 00:16:28;;;;;;;5.65;2.70;;;;;17.10;101550.00;;;;10126454;29;20286;-80
2023/07/10 00:21:30;;;;;;;5.32;2.50;;;;;17.10;101563.00;;;;10123213;29;20216;-79
2023/07/10 00:26:31;;;;;;;5.40;2.88;;;;;17.20;101557.00;;;;10125361;29;20749;-79
2023/07/10 00:31:33;;;;;;;8.10;3.13;;;;;17.30;101556.00;;;;10135321;29;20566;-79
2023/07/10 00:36:40;;;;;;;9.13;3.25;;;;;17.40;101551.00;;;;10136504;29;20219;-79
2023/07/10 00:41:43;;;;;;;10.45;3.80;;;;;17.50;101559.00;;;;10135835;29;20210;-79
2023/07/10 00:46:50;;;;;;;8.10;3.40;;;;;17.50;101558.00;;;;10112777;29;21028;-84
2023/07/10 00:52:00;;;;;;;7.30;3.33;;;;;17.50;101560.00;;;;10139057;29;20228;-79
2023/07/10 00:57:13;;;;;;;9.63;3.40;;;;;17.40;101557.00;;;;10133020;29;20203;-84
2023/07/10 01:02:18;;;;;;;5.80;2.95;;;;;17.20;101562.00;;;;10136578;29;20682;-79
2023/07/10 01:07:22;;;;;;;6.82;3.50;;;;;17.10;101560.00;;;;10120359;29;20282;-80
2023/07/10 01:12:26;;;;;;;6.68;3.45;;;;;17.10;101565.00;;;;10104990;29;20219;-76
2023/07/10 01:17:27;;;;;;;5.97;2.90;;;;;17.10;101563.00;;;;10110861;29;20290;-79
2023/07/10 01:22:29;;;;;;;5.00;2.95;;;;;17.00;101570.00;;;;10087738;29;20212;-77
2023/07/10 01:27:32;;;;;;;7.32;2.58;;;;;17.00;101566.00;;;;10099774;29;20618;-78
2023/07/10 01:32:33;;;;;;;7.40;2.70;;;;;16.90;101576.00;;;;10143065;29;20233;-77
2023/07/10 01:37:35;;;;;;;5.18;2.78;;;;;16.80;101584.00;;;;10135022;29;20282;-84
2023/07/10 01:42:36;;;;;;;4.75;2.53;;;;;16.80;101581.00;;;;10134483;29;20212;-83
2023/07/10 01:47:37;;;;;;;4.53;2.45;;;;;16.70;101571.00;;;;10099473;29;20306;-80
2023/07/10 01:52:39;;;;;;;6.20;2.85;;;;;16.60;101571.00;;;;10104860;29;20752;-84
2023/07/10 01:57:40;;;;;;;6.70;2.65;;;;;16.50;101569.00;;;;10102211;29;20272;-79
2023/07/10 02:02:41;;;;;;;6.03;2.70;;;;;16.40;101577.00;;;;10093526;29;20244;-79
2023/07/10 02:07:43;;;;;;;6.90;3.22;;;;;16.30;101578.00;;;;10086444;29;20598;-80
2023/07/10 02:12:44;;;;;;;6.22;3.08;;;;;16.30;101576.00;;;;10134879;29;20227;-80
2023/07/10 02:17:46;;;;;;;10.90;3.92;;;;;16.30;101566.00;;;;10114922;29;20215;-80
2023/07/10 02:22:47;;;;;;;11.75;4.05;;;;;16.20;101567.00;;;;10133475;29;20223;-81
2023/07/10 02:27:49;;;;;;;7.15;3.60;;;;;16.20;101561.00;;;;10135313;29;20212;-83
2023/07/10 02:32:50;;;;;;;5.93;4.47;;;;;16.20;101568.00;;;;10117351;29;20243;-80
2023/07/10 02:37:54;;;;;;;9.45;4.28;;;;;16.00;101551.00;;;;10133427;29;20220;-74
2023/07/10 02:42:55;;;;;;;6.88;3.60;;;;;15.90;101560.00;;;;10132308;29;20214;-76
2023/07/10 02:47:57;;;;;;;7.38;3.75;;;;;15.90;101571.00;;;;10116239;29;20206;-77
2023/07/10 02:52:58;;;;;;;8.60;3.95;;;;;15.80;101578.00;;;;10132677;29;20254;-75
2023/07/10 02:58:01;;;;;;;5.70;3.63;;;;;15.80;101578.00;;;;10132683;29;20313;-80
2023/07/10 03:03:03;;;;;;;11.85;3.75;;;;;16.00;101594.00;;;;10118615;29;20208;-80
2023/07/10 03:08:04;;;;;;;8.98;3.80;;;;;16.10;101585.00;;;;10109242;29;20285;-84
2023/07/10 03:13:06;;;;;;;6.15;3.33;;;;;16.20;101590.00;;;;10101619;29;20215;-81
2023/07/10 03:18:07;;;;;;;8.48;3.63;;;;;16.10;101583.00;;;;10107424;29;20211;-81
2023/07/10 03:23:08;;;;;;;6.35;3.38;;;;;16.00;101586.00;;;;10109054;29;20223;-77
2023/07/10 03:28:09;;;;;;;10.52;4.28;;;;;15.90;101592.00;;;;10096319;29;20230;-81
2023/07/10 03:33:13;;;;;;;6.95;3.53;;;;;15.80;101607.00;;;;10104189;29;20219;-82
2023/07/10 03:38:16;;;;;;;7.93;4.03;;;;;15.70;101619.00;;;;10109313;29;20206;-81
2023/07/10 03:43:17;;;;;;;7.20;4.13;;;;;15.60;101627.00;;;;10116726;29;20302;-81
2023/07/10 03:48:18;;;;;;;12.90;4.55;;;;;15.60;101621.00;;;;10113186;29;20335;-79
2023/07/10 03:53:19;;;;;;;7.95;4.00;;;;;15.60;101620.00;;;;10111781;29;20235;-80
2023/07/10 03:58:28;;;;;;;7.70;4.07;;;;;15.70;101624.00;;;;10110261;29;20298;-80
2023/07/10 04:03:32;;;;;;;13.75;5.00;;;;;15.80;101623.00;;;;10115168;29;20767;-81
2023/07/10 04:08:37;;;;;;;9.27;4.40;;;;;15.80;101621.00;;;;10115838;29;20411;-77
2023/07/10 04:13:38;;;;;;;12.05;4.93;;;;;15.90;101631.00;;;;10104686;29;20258;-80
2023/07/10 04:18:41;;;;;;;9.93;4.03;;;;;16.00;101629.00;;;;10107625;29;20214;-77
2023/07/10 04:23:43;;;;;;;9.65;3.97;;;;;16.10;101634.00;;;;10101710;29;20275;-81
2023/07/10 04:28:47;;;;;;;9.35;3.88;;;;;16.20;101637.00;;;;10093082;29;20214;-80
2023/07/10 04:33:50;;;;;;;10.82;4.30;;;;;16.30;101637.00;;;;10113434;29;20219;-81
2023/07/10 04:38:52;;;;;;;10.43;4.35;;;;;16.40;101639.00;;;;10106006;29;20211;-78
2023/07/10 04:43:53;;;;;;;10.40;4.38;;;;;16.60;101640.00;;;;10121321;29;20215;-83
2023/07/10 04:48:54;;;;;;;10.52;4.78;;;;;16.80;101642.00;;;;10114782;29;20502;-78
2023/07/10 04:53:56;;;;;;;10.57;5.15;;;;;16.90;101650.00;;;;10108650;29;20223;-79
2023/07/10 04:58:58;;;;;;;6.70;4.93;;;;;17.10;101653.00;;;;10116174;29;20207;-77
2023/07/10 05:04:00;;;;;;;12.77;4.68;;;;;17.30;101646.00;;;;10097549;29;20689;-80
2023/07/10 05:09:01;;;;;;;9.57;4.25;;;;;17.70;101644.00;;;;10100050;29;20211;-80
2023/07/10 05:14:03;;;;;;;9.20;4.45;;;;;18.10;101660.00;;;;10116768;29;20992;-83
2023/07/10 05:19:04;;;;;;;11.35;4.68;;;;;18.50;101659.00;;;;10099613;29;20214;-81
2023/07/10 05:24:06;;;;;;;13.77;4.90;;;;;18.90;101655.00;;;;10123909;29;20207;-83
2023/07/10 05:29:07;;;;;;;8.35;3.70;;;;;19.30;101657.00;;;;10114213;29;20235;-82
2023/07/10 05:34:09;;;;;;;9.02;4.00;;;;;19.70;101664.00;;;;10113815;29;20628;-77
2023/07/10 05:39:12;;;;;;;8.85;3.67;;;;;20.00;101663.00;;;;10112412;29;20210;-78
2023/07/10 05:44:13;;;;;;;8.43;4.10;;;;;20.40;101667.00;;;;10107643;29;20214;-78
2023/07/10 05:49:15;;;;;;;9.63;3.50;;;;;20.80;101662.00;;;;10103769;29;20196;-79
2023/07/10 05:54:16;;;;;;;7.13;3.58;;;;;21.10;101658.00;;;;10109522;29;20212;-78
2023/07/10 05:59:17;;;;;;;6.47;2.85;;;;;21.50;101648.00;;;;10109871;29;20374;-78
2023/07/10 06:04:19;;;;;;;6.40;2.72;;;;;21.90;101659.00;;;;10107362;29;20214;-80
2023/07/10 06:09:20;;;;;;;8.77;2.88;;;;;22.20;101659.00;;;;10099352;29;20221;-79
2023/07/10 06:14:21;;;;;;;8.05;2.45;;;;;22.50;101668.00;;;;10101705;29;20203;-79
2023/07/10 06:19:23;;;;;;;4.80;2.15;;;;;22.90;101668.00;;;;10102831;29;20715;-81
2023/07/10 06:24:24;;;;;;;6.20;2.60;;;;;23.20;101676.00;;;;10114171;29;20413;-80
2023/07/10 06:29:26;;;;;;;6.78;2.58;;;;;23.20;101672.00;;;;10102180;29;20662;-80
2023/07/10 06:34:28;;;;;;;4.40;2.10;;;;;23.40;101673.00;;;;10115091;29;20299;-81
2023/07/10 06:39:30;;;;;;;3.47;2.03;;;;;23.90;101678.00;;;;10116181;29;20242;-78
2023/07/10 06:44:31;;;;;;;6.90;2.58;;;;;24.30;101677.00;;;;10123825;29;20210;-78
2023/07/10 06:49:33;;;;;;;4.53;2.10;;;;;24.50;101682.00;;;;10132614;29;20309;-79
2023/07/10 06:54:34;;;;;;;8.25;1.77;;;;;24.70;101681.00;;;;10125401;29;20551;-79
2023/07/10 06:59:35;;;;;;;5.90;1.80;;;;;25.10;101680.00;;;;10110299;29;20214;-79
2023/07/10 07:04:37;;;;;;;2.97;1.50;;;;;24.90;101684.00;;;;10134963;29;20208;-80
2023/07/10 07:09:38;;;;;;;4.15;1.70;;;;;25.00;101685.00;;;;10125097;29;20230;-76
2023/07/10 07:14:39;;;;;;;4.45;1.73;;;;;25.20;101687.00;;;;10130615;29;20309;-75
2023/07/10 07:19:45;;;;;;;3.83;1.30;;;;;24.80;101689.00;;;;10125006;29;20200;-79
2023/07/10 07:24:47;;;;;;;3.00;1.70;;;;;25.00;101675.00;;;;10124024;29;20474;-78
2023/07/10 07:29:50;;;;;;;4.15;1.67;;;;;25.20;101672.00;;;;10099667;29;20279;-76
2023/07/10 07:34:52;;;;;;;3.92;1.67;;;;;25.10;101669.00;;;;10113126;29;20202;-75
2023/07/10 07:39:56;;;;;;;5.55;1.98;;;;;25.80;101681.00;;;;10142056;29;20208;-87
2023/07/10 07:44:57;;;;;;;4.88;2.00;;;;;26.10;101681.00;;;;10127255;29;20203;-75
2023/07/10 07:49:59;;;;;;;4.07;1.55;;;;;26.70;101676.00;;;;10126080;29;20224;-77
2023/07/10 07:55:00;;;;;;;4.20;1.67;;;;;27.10;101673.00;;;;10117499;29;20268;-77
2023/07/10 08:00:01;;;;;;;3.47;1.42;;;;;26.70;101678.00;;;;10126379;29;20210;-80
2023/07/10 08:05:13;;;;;;;4.60;1.40;;;;;26.20;101677.00;;;;10123005;29;20601;-74
2023/07/10 08:10:46;;;;;;;3.85;1.30;;;;;26.40;101672.00;;;;10109313;29;20215;-82
2023/07/10 08:15:48;;;;;;;4.30;1.70;;;;;27.20;101675.00;;;;10114497;29;20208;-78
2023/07/10 08:20:49;;;;;;;4.20;1.83;;;;;27.20;101666.00;;;;10124043;29;20201;-75
2023/07/10 08:25:50;;;;;;;5.40;1.73;;;;;27.30;101670.00;;;;10124909;29;20222;-77
2023/07/10 08:30:52;;;;;;;6.35;1.88;;;;;28.10;101665.00;;;;10118184;29;20272;-75
2023/07/10 08:36:01;;;;;;;5.75;1.70;;;;;29.00;101668.00;;;;10128141;29;20212;-79
2023/07/10 08:41:16;;;;;;;3.45;1.58;;;;;29.90;101661.00;;;;10125456;29;20206;-78
2023/07/10 08:46:24;;;;;;;4.43;1.80;;;;;30.50;101663.00;;;;10126476;29;20211;-77
2023/07/10 08:51:44;;;;;;;3.67;1.77;;;;;30.90;101666.00;;;;10115116;29;20579;-79
2023/07/10 08:56:50;;;;;;;9.05;1.75;;;;;31.00;101655.00;;;;10130608;29;20210;-79
2023/07/10 09:01:53;;;;;;;7.35;2.03;;;;;31.30;101653.00;;;;10125872;29;20305;-73
2023/07/10 09:07:00;;;;;;;6.22;1.70;;;;;30.50;101652.00;;;;10128285;29;20207;-79
2023/07/10 09:12:08;;;;;;;4.78;1.90;;;;;29.80;101651.00;;;;10116679;29;20228;-76
2023/07/10 09:17:43;;;;;;;5.35;1.65;;;;;30.70;101648.00;;;;10135268;29;20216;-75
2023/07/10 09:23:24;;;;;;;5.25;2.00;;;;;30.70;101650.00;;;;10130283;29;20199;-74
2023/07/10 09:28:26;;;;;;;2.35;1.55;;;;;31.60;101650.00;;;;10103835;29;20742;-77
2023/07/10 09:34:00;;;;;;;5.55;1.98;;;;;32.30;101655.00;;;;10122894;29;20673;-78
2023/07/10 09:39:03;;;;;;;3.58;1.77;;;;;30.70;101678.00;;;;10123477;29;20611;-78
2023/07/10 09:44:14;;;;;;;4.65;1.70;;;;;31.00;101659.00;;;;10135308;29;20204;-75
2023/07/10 09:49:19;;;;;;;5.63;1.83;;;;;31.00;101658.00;;;;10121976;29;20216;-76
2023/07/10 09:54:21;;;;;;;2.90;1.20;;;;;32.10;101645.00;;;;10126398;29;20208;-76
2023/07/10 09:59:26;;;;;;;3.90;1.50;;;;;33.30;101645.00;;;;10132578;29;20614;-78
2023/07/10 10:04:31;;;;;;;3.70;1.77;;;;;33.80;101644.00;;;;10133213;29;20244;-78
2023/07/10 10:09:34;;;;;;;2.83;1.33;;;;;33.40;101637.00;;;;10134654;29;20207;-78
2023/07/10 10:14:48;;;;;;;4.45;1.40;;;;;34.00;101629.00;;;;10122013;29;20290;-86
2023/07/10 10:19:57;;;;;;;5.82;1.73;;;;;34.30;101620.00;;;;10123959;29;20248;-77
2023/07/10 10:24:58;;;;;;;4.53;1.50;;;;;35.00;101627.00;;;;10132342;29;20615;-78
2023/07/10 10:30:07;;;;;;;3.78;1.10;;;;;34.10;101634.00;;;;10114514;29;20211;-77
2023/07/10 10:35:17;;;;;;;4.97;1.52;;;;;32.20;101630.00;;;;10104069;29;20271;-79
2023/07/10 10:40:23;;;;;;;5.55;1.50;;;;;31.10;101641.00;;;;10111290;29;20314;-79
2023/07/10 10:45:30;;;;;;;4.38;1.63;;;;;30.80;101638.00;;;;10112288;29;20212;-78
2023/07/10 10:51:08;;;;;;;6.53;1.90;;;;;30.40;101637.00;;;;10103977;29;20246;-77
2023/07/10 10:56:38;;;;;;;4.13;1.70;;;;;31.70;101637.00;;;;10102935;29;20909;-77
2023/07/10 11:01:57;;;;;;;5.30;1.65;;;;;34.00;101638.00;;;;10087890;29;20283;-78
2023/07/10 11:07:03;;;;;;;4.45;1.67;;;;;32.30;101632.00;;;;10096299;29;20195;-79
2023/07/10 11:12:13;;;;;;;4.10;1.58;;;;;34.20;101620.00;;;;10094175;29;20247;-77
2023/07/10 11:17:14;;;;;;;7.53;2.03;;;;;34.90;101616.00;;;;10107452;29;20306;-79
2023/07/10 11:22:31;;;;;;;4.95;1.95;;;;;35.30;101603.00;;;;10100533;29;20215;-80
2023/07/10 11:27:36;;;;;;;3.42;1.50;;;;;34.10;101608.00;;;;10105558;29;20251;-79
2023/07/10 11:33:16;;;;;;;3.03;1.70;;;;;33.50;101592.00;;;;10119547;29;20219;-79
2023/07/10 11:38:18;;;;;;;4.28;1.58;;;;;34.90;101591.00;;;;10112521;29;20207;-79
2023/07/10 11:43:25;;;;;;;4.32;1.23;;;;;35.70;101583.00;;;;10109348;29;20211;-78
2023/07/10 11:48:38;;;;;;;3.33;1.65;;;;;35.90;101588.00;;;;10113725;29;20274;-85
2023/07/10 11:53:39;;;;;;;4.53;1.77;;;;;35.20;101582.00;;;;10120032;29;20219;-83
2023/07/10 11:58:41;;;;;;;4.30;1.50;;;;;36.40;101583.00;;;;10104437;29;20764;-79
2023/07/10 12:03:43;;;;;;;4.93;1.80;;;;;35.70;101592.00;;;;10104628;29;20204;-80
2023/07/10 12:08:49;;;;;;;4.50;1.88;;;;;33.50;101582.00;;;;10116552;29;20631;-80
2023/07/10 12:13:51;;;;;;;4.80;1.75;;;;;33.90;101562.00;;;;10103543;29;20288;-78
2023/07/10 12:18:52;;;;;;;8.05;2.40;;;;;34.00;101547.00;;;;10099285;29;20203;-77
2023/07/10 12:23:57;;;;;;;5.35;2.25;;;;;33.40;101558.00;;;;10102039;29;20609;-78
2023/07/10 12:28:58;;;;;;;4.45;1.98;;;;;31.50;101537.00;;;;10112249;29;20259;-78
2023/07/10 12:34:00;;;;;;;3.65;1.83;;;;;32.80;101538.00;;;;10109541;29;20299;-77
2023/07/10 12:39:07;;;;;;;6.20;1.90;;;;;33.40;101549.00;;;;10102826;29;20290;-78
2023/07/10 12:44:18;;;;;;;2.70;1.55;;;;;31.40;101541.00;;;;10111140;29;20205;-79
2023/07/10 12:49:24;;;;;;;5.07;2.03;;;;;31.20;101517.00;;;;10102434;29;20266;-79
2023/07/10 12:54:34;;;;;;;4.57;1.80;;;;;32.10;101522.00;;;;10108995;29;20220;-78
2023/07/10 12:59:37;;;;;;;4.22;1.80;;;;;31.70;101520.00;;;;10103291;29;20265;-79
2023/07/10 13:04:40;;;;;;;4.97;2.28;;;;;31.20;101513.00;;;;10091223;29;20215;-78
2023/07/10 13:09:54;;;;;;;4.57;2.15;;;;;32.10;101506.00;;;;10109004;29;20567;-78
2023/07/10 13:14:57;;;;;;;4.55;1.88;;;;;32.50;101525.00;;;;10113916;29;20244;-88
2023/07/10 13:19:59;;;;;;;4.47;2.13;;;;;31.30;101511.00;;;;10120087;29;20607;-85
2023/07/10 13:25:11;;;;;;;3.20;1.92;;;;;30.90;101505.00;;;;10109403;29;20231;-82
2023/07/10 13:30:21;;;;;;;5.18;2.22;;;;;30.80;101498.00;;;;10114812;29;20216;-83
2023/07/10 13:35:22;;;;;;;4.25;2.17;;;;;30.10;101501.00;;;;10130126;29;20215;-87
2023/07/10 13:40:23;;;;;;;5.57;1.55;;;;;30.90;101492.00;;;;10122244;29;20203;-80
2023/07/10 13:45:25;;;;;;;5.00;1.88;;;;;33.40;101484.00;;;;10135809;29;20235;-90
2023/07/10 13:50:26;;;;;;;4.43;1.73;;;;;32.80;101493.00;;;;10122492;29;20306;-87
2023/07/10 13:55:27;;;;;;;2.58;1.77;;;;;31.90;101481.00;;;;10116258;29;20231;-84
2023/07/10 14:00:29;;;;;;;4.97;1.95;;;;;33.30;101479.00;;;;10145958;29;20214;-86
2023/07/10 14:05:30;;;;;;;4.25;1.75;;;;;33.80;101476.00;;;;10139252;29;20290;-84
2023/07/10 14:10:32;;;;;;;3.42;1.73;;;;;32.60;101472.00;;;;10112330;29;20267;-84
2023/07/10 14:15:33;;;;;;;3.13;1.75;;;;;31.90;101476.00;;;;10115249;29;20276;-79
2023/07/10 14:20:34;;;;;;;5.72;1.80;;;;;32.10;101465.00;;;;10110109;29;20223;-84
2023/07/10 14:25:36;;;;;;;5.18;2.28;;;;;31.20;101460.00;;;;10124108;29;20315;-79
2023/07/10 14:30:37;;;;;;;3.15;1.48;;;;;30.60;101459.00;;;;10108902;29;20212;-83
2023/07/10 14:35:40;;;;;;;2.67;1.40;;;;;30.50;101459.00;;;;10118120;29;20435;-81
2023/07/10 14:40:41;;;;;;;3.92;1.80;;;;;31.10;101445.00;;;;10114801;29;20833;-82
2023/07/10 14:45:57;;;;;;;3.42;1.33;;;;;32.70;101455.00;;;;10136222;29;20211;-86
2023/07/10 14:50:58;;;;;;;3.17;1.40;;;;;31.80;101440.00;;;;10152629;29;20230;-88
2023/07/10 14:56:01;;;;;;;2.05;1.40;;;;;31.30;101438.00;;;;10122920;29;20206;-85
2023/07/10 15:01:02;;;;;;;2.92;1.73;;;;;31.10;101424.00;;;;10136143;29;20195;-79
2023/07/10 15:06:13;;;;;;;3.67;1.67;;;;;32.20;101428.00;;;;10114970;29;20689;-84
2023/07/10 15:11:16;;;;;;;6.07;1.90;;;;;32.40;101411.00;;;;10116130;29;20219;-87
2023/07/10 15:16:20;;;;;;;1.75;1.30;;;;;32.10;101412.00;;;;10137246;29;20265;-87
2023/07/10 15:21:25;;;;;;;2.72;1.33;;;;;31.70;101403.00;;;;10138693;29;20228;-87
2023/07/10 15:26:26;;;;;;;3.67;1.52;;;;;32.70;101399.00;;;;10131689;29;20205;-87
2023/07/10 15:31:27;;;;;;;3.08;1.55;;;;;32.50;101411.00;;;;10139519;29;20223;-88
2023/07/10 15:36:29;;;;;;;4.05;1.73;;;;;32.40;101399.00;;;;10135867;29;20211;-85
2023/07/10 15:41:30;;;;;;;5.13;1.60;;;;;32.70;101397.00;;;;10115114;29;20241;-85
2023/07/10 15:46:32;;;;;;;3.45;1.52;;;;;31.70;101396.00;;;;10136076;29;20213;-85
2023/07/10 15:51:33;;;;;;;2.78;1.42;;;;;30.90;101391.00;;;;10127560;29;20234;-84
2023/07/10 15:56:34;;;;;;;5.25;1.88;;;;;30.30;101369.00;;;;10134580;29;20219;-85
2023/07/10 16:02:02;;;;;;;5.13;1.67;;;;;30.30;101370.00;;;;10136055;29;20199;-84
2023/07/10 16:07:04;;;;;;;5.05;1.60;;;;;30.20;101359.00;;;;10139694;29;20218;-84
2023/07/10 16:12:12;;;;;;;3.90;1.63;;;;;30.00;101349.00;;;;10118984;29;20590;-83
2023/07/10 16:17:14;;;;;;;3.15;1.80;;;;;29.90;101356.00;;;;10135107;29;20242;-83
2023/07/10 16:22:16;;;;;;;4.07;1.50;;;;;29.70;101347.00;;;;10142370;29;20579;-83
2023/07/10 16:27:17;;;;;;;2.83;1.40;;;;;29.50;101352.00;;;;10114543;29;20212;-82
2023/07/10 16:32:18;;;;;;;3.88;1.65;;;;;29.10;101348.00;;;;10126273;29;20642;-82
2023/07/10 16:37:20;;;;;;;6.20;1.70;;;;;28.80;101350.00;;;;10128821;29;20688;-83
2023/07/10 16:42:21;;;;;;;2.67;1.67;;;;;28.70;101343.00;;;;10131352;29;20211;-81
2023/07/10 16:47:22;;;;;;;5.50;1.67;;;;;28.60;101338.00;;;;10122541;29;20204;-83
2023/07/10 16:52:24;;;;;;;3.97;1.45;;;;;28.70;101340.00;;;;10112819;29;20238;-82
2023/07/10 16:57:25;;;;;;;3.25;1.63;;;;;28.50;101333.00;;;;10138925;29;20203;-83
2023/07/10 17:02:27;;;;;;;4.68;1.60;;;;;28.60;101332.00;;;;10136891;29;20252;-81
2023/07/10 17:07:28;;;;;;;5.68;1.90;;;;;28.60;101329.00;;;;10115621;29;20286;-83
2023/07/10 17:12:29;;;;;;;6.22;2.08;;;;;28.80;101321.00;;;;10129756;29;20238;-83
2023/07/10 17:17:31;;;;;;;3.17;1.77;;;;;29.10;101326.00;;;;10130744;29;20258;-82
2023/07/10 17:22:33;;;;;;;2.85;1.75;;;;;28.90;101323.00;;;;10135927;29;20745;-83
2023/07/10 17:27:35;;;;;;;3.65;1.67;;;;;28.30;101312.00;;;;10123366;29;20207;-82
2023/07/10 17:32:36;;;;;;;2.38;1.45;;;;;27.80;101312.00;;;;10128771;29;20232;-83
2023/07/10 17:37:37;;;;;;;2.38;1.60;;;;;27.80;101307.00;;;;10139351;29;20203;-83
2023/07/10 17:42:40;;;;;;;2.80;1.48;;;;;27.80;101297.00;;;;10126038;29;20211;-83
2023/07/10 17:47:41;;;;;;;2.65;1.58;;;;;27.50;101292.00;;;;10129880;29;20208;-84
2023/07/10 17:52:44;;;;;;;2.42;1.65;;;;;27.40;101295.00;;;;10110113;29;20283;-84
2023/07/10 17:57:48;;;;;;;2.47;1.52;;;;;27.60;101297.00;;;;10128946;29;20215;-84
2023/07/10 18:02:49;;;;;;;5.47;1.58;;;;;27.50;101300.00;;;;10138500;29;20218;-84
2023/07/10 18:07:51;;;;;;;3.92;1.50;;;;;27.40;101300.00;;;;10122690;29;20239;-84
2023/07/10 18:12:52;;;;;;;3.67;1.77;;;;;27.30;101301.00;;;;10134065;29;20228;-84
2023/07/10 18:17:54;;;;;;;2.85;1.67;;;;;27.30;101299.00;;;;10136221;29;20203;-86
2023/07/10 18:22:56;;;;;;;3.80;1.70;;;;;27.00;101299.00;;;;10086368;29;20215;-83
2023/07/10 18:27:58;;;;;;;6.18;1.80;;;;;26.90;101297.00;;;;10116115;29;20686;-83
2023/07/10 18:32:59;;;;;;;1.85;1.60;;;;;26.90;101299.00;;;;10113570;29;20227;-83
2023/07/10 18:38:00;;;;;;;2.78;1.60;;;;;26.80;101290.00;;;;10136185;29;20229;-84
2023/07/10 18:43:02;;;;;;;3.53;1.63;;;;;26.70;101280.00;;;;10094297;29;20672;-84
2023/07/10 18:48:13;;;;;;;2.05;1.27;;;;;26.60;101289.00;;;;10133511;29;20678;-83
2023/07/10 18:53:27;;;;;;;2.83;1.65;;;;;26.50;101274.00;;;;10132943;29;20595;-83
2023/07/10 18:58:30;;;;;;;3.20;1.48;;;;;26.40;101283.00;;;;10119781;29;20219;-83
2023/07/10 19:03:31;;;;;;;6.72;1.92;;;;;26.20;101273.00;;;;10128339;29;20302;-83
2023/07/10 19:08:33;;;;;;;4.53;1.70;;;;;25.90;101282.00;;;;10134807;29;20210;-84
2023/07/10 19:13:35;;;;;;;3.63;1.83;;;;;25.70;101263.00;;;;10118708;29;20227;-83
2023/07/10 19:18:36;;;;;;;2.17;1.40;;;;;25.50;101250.00;;;;10115725;29;20199;-84
2023/07/10 19:23:38;;;;;;;2.38;1.85;;;;;25.20;101253.00;;;;10118053;29;20206;-83
2023/07/10 19:28:39;;;;;;;7.68;2.63;;;;;25.00;101253.00;;;;10132592;29;20219;-83
2023/07/10 19:33:45;;;;;;;5.88;2.28;;;;;24.90;101255.00;;;;10114492;29;20223;-79
2023/07/10 19:38:47;;;;;;;5.07;2.17;;;;;24.60;101267.00;;;;10118326;29;20693;-78
2023/07/10 19:43:49;;;;;;;3.20;2.10;;;;;24.40;101267.00;;;;10124864;29;20222;-79
2023/07/10 19:48:53;;;;;;;4.78;2.13;;;;;24.10;101259.00;;;;10096515;29;20205;-79
2023/07/10 19:53:55;;;;;;;6.60;2.30;;;;;23.90;101259.00;;;;10111433;29;20681;-79
2023/07/10 19:58:56;;;;;;;7.28;2.10;;;;;23.70;101254.00;;;;10113212;29;20216;-78
2023/07/10 20:03:57;;;;;;;4.13;1.75;;;;;23.50;101253.00;;;;10108537;29;20215;-85
2023/07/10 20:09:09;;;;;;;2.53;1.95;;;;;23.30;101245.00;;;;10108933;29;20204;-79
2023/07/10 20:14:12;;;;;;;4.68;2.22;;;;;23.20;101245.00;;;;10117258;29;20307;-78
2023/07/10 20:19:20;;;;;;;2.58;2.17;;;;;23.00;101239.00;;;;10127001;29;20207;-79
2023/07/10 20:24:23;;;;;;;4.88;1.88;;;;;22.90;101234.00;;;;10119512;29;20615;-80
2023/07/10 20:29:28;;;;;;;3.95;1.70;;;;;22.80;101233.00;;;;10129844;29;20211;-78
2023/07/10 20:34:29;;;;;;;3.63;1.85;;;;;22.70;101235.00;;;;10121537;29;20231;-79
2023/07/10 20:39:34;;;;;;;4.45;3.15;;;;;22.60;101235.00;;;;10108558;29;20212;-79
2023/07/10 20:44:35;;;;;;;4.80;3.85;;;;;22.50;101234.00;;;;10097320;29;20207;-79
2023/07/10 20:49:36;;;;;;;3.67;2.92;;;;;22.40;101229.00;;;;10130485;29;20215;-79
2023/07/10 20:54:39;;;;;;;3.85;2.47;;;;;22.20;101226.00;;;;10128893;29;20230;-79
2023/07/10 20:59:41;;;;;;;6.28;2.22;;;;;22.10;101219.00;;;;10128681;29;20207;-79
2023/07/10 21:04:42;;;;;;;5.05;2.28;;;;;22.10;101212.00;;;;10094544;29;20291;-80
2023/07/10 21:09:46;;;;;;;5.50;2.40;;;;;22.00;101217.00;;;;10123399;29;20200;-79
2023/07/10 21:14:49;;;;;;;5.95;2.60;;;;;21.90;101216.00;;;;10121379;29;20338;-80
2023/07/10 21:19:50;;;;;;;6.18;2.47;;;;;21.80;101224.00;;;;10128816;29;20196;-79
2023/07/10 21:24:52;;;;;;;3.42;2.10;;;;;21.60;101227.00;;;;10123144;29;20203;-79
2023/07/10 21:29:59;;;;;;;4.57;2.33;;;;;21.50;101230.00;;;;10106369;29;20203;-79
2023/07/10 21:35:00;;;;;;;4.80;2.05;;;;;21.40;101230.00;;;;10130951;29;20598;-79
2023/07/10 21:40:02;;;;;;;7.75;1.85;;;;;21.30;101244.00;;;;10127588;29;20204;-79
2023/07/10 21:45:04;;;;;;;4.82;2.05;;;;;21.00;101237.00;;;;10133077;29;20730;-79
2023/07/10 21:50:14;;;;;;;7.65;2.10;;;;;20.90;101233.00;;;;10124802;29;20200;-79
2023/07/10 21:55:20;;;;;;;3.75;2.20;;;;;20.60;101227.00;;;;10125447;29;20626;-78
2023/07/10 22:00:22;;;;;;;6.25;2.13;;;;;20.40;101226.00;;;;10132204;29;20203;-79
2023/07/10 22:05:23;;;;;;;4.53;1.90;;;;;20.30;101221.00;;;;10124080;29;20242;-79
2023/07/10 22:10:24;;;;;;;4.95;2.10;;;;;20.10;101218.00;;;;10100436;29;20229;-79
2023/07/10 22:15:25;;;;;;;4.68;1.73;;;;;20.00;101216.00;;;;10099838;29;20301;-78
2023/07/10 22:20:39;;;;;;;5.88;2.22;;;;;19.80;101211.00;;;;10113784;29;20204;-80
2023/07/10 22:25:41;;;;;;;6.50;2.40;;;;;19.80;101208.00;;;;10126846;29;20207;-79
2023/07/10 22:30:45;;;;;;;5.82;2.20;;;;;19.70;101203.00;;;;10128436;29;20675;-79
2023/07/10 22:35:47;;;;;;;4.07;1.80;;;;;19.60;101191.00;;;;10129556;29;20210;-79
2023/07/10 22:40:52;;;;;;;5.40;2.08;;;;;19.50;101188.00;;;;10125484;29;20207;-79
2023/07/10 22:45:55;;;;;;;6.75;2.13;;;;;19.30;101187.00;;;;10127470;29;20211;-79
2023/07/10 22:50:56;;;;;;;3.78;1.90;;;;;19.10;101187.00;;;;10130165;29;20227;-78
2023/07/10 22:56:00;;;;;;;4.30;2.10;;;;;19.00;101195.00;;;;10114380;29;20647;-79
2023/07/10 23:01:02;;;;;;;6.75;2.58;;;;;18.90;101195.00;;;;10100276;29;20211;-77
2023/07/10 23:06:06;;;;;;;6.82;2.70;;;;;18.80;101194.00;;;;10125691;29;20207;-78
2023/07/10 23:11:07;;;;;;;7.95;2.58;;;;;18.70;101182.00;;;;10132488;29;20283;-78
2023/07/10 23:16:11;;;;;;;5.78;2.45;;;;;18.60;101178.00;;;;10107355;29;20601;-79
2023/07/10 23:21:12;;;;;;;10.13;2.40;;;;;18.50;101184.00;;;;10127203;29;20214;-79
2023/07/10 23:26:16;;;;;;;5.70;2.53;;;;;18.40;101178.00;;;;10105323;29;20219;-79
2023/07/10 23:31:20;;;;;;;5.95;2.70;;;;;18.30;101174.00;;;;10125257;29;20224;-78
2023/07/10 23:36:24;;;;;;;5.68;2.63;;;;;18.20;101166.00;;;;10091866;29;20575;-79
2023/07/10 23:41:26;;;;;;;6.35;2.63;;;;;18.20;101164.00;;;;10119871;29;20205;-79
2023/07/10 23:46:28;;;;;;;4.00;2.78;;;;;18.10;101154.00;;;;10135102;29;20211;-79
2023/07/10 23:51:29;;;;;;;5.57;2.92;;;;;18.00;101159.00;;;;10145480;29;20314;-79
2023/07/10 23:56:30;;;;;;;5.93;2.55;;;;;17.90;101155.00;;;;10129186;29;20211;-78
